createdAt,value
2023-05-25T00:02:41.052Z,84.5
2023-05-25T00:04:42.110Z,84.77
2023-05-25T00:08:45.521Z,85.01
2023-05-25T00:10:47.089Z,85.02
2023-05-25T00:14:49.970Z,85.56
2023-05-25T00:18:52.896Z,85.73
2023-05-25T00:20:53.990Z,85.98
2023-05-25T00:24:56.655Z,85.44
2023-05-25T00:26:57.995Z,85.47
2023-05-25T00:31:00.880Z,86.17
2023-05-25T00:35:04.004Z,86.57
2023-05-25T00:37:05.860Z,86.66
2023-05-25T00:41:08.350Z,86.71
2023-05-25T00:45:11.815Z,86.97
2023-05-25T00:47:13.078Z,86.98
2023-05-25T00:51:15.838Z,87
2023-05-25T00:53:17.446Z,86.67
2023-05-25T00:57:20.769Z,86.02
2023-05-25T01:01:23.960Z,86.25
2023-05-25T01:03:25.438Z,86.31
2023-05-25T01:07:28.114Z,86.26
2023-05-25T01:09:29.810Z,86.71
2023-05-25T01:12:15.490Z,86.6
2023-05-25T01:14:16.870Z,86.78
2023-05-25T01:18:19.805Z,87.08
2023-05-25T01:22:22.761Z,87.24
2023-05-25T01:24:24.310Z,87.11
2023-05-25T01:28:27.495Z,88.03
2023-05-25T01:30:28.560Z,88.3
2023-05-25T01:32:29.692Z,88.42
2023-05-25T01:34:39.767Z,88.26
2023-05-25T01:38:34.643Z,88.15
2023-05-25T01:40:35.596Z,88.12
2023-05-25T01:44:38.639Z,87.79
2023-05-25T01:46:40.322Z,87.8
2023-05-25T01:50:43.048Z,88.21
2023-05-25T01:54:45.867Z,88.4
2023-05-25T01:56:47.771Z,88.7
2023-05-25T02:00:50.587Z,88.93
2023-05-25T02:04:54.065Z,88.8
2023-05-25T02:06:55.148Z,89.11
2023-05-25T02:10:58.602Z,88.78
2023-05-25T02:12:59.883Z,89.02
2023-05-25T02:15:01.659Z,89.18
2023-05-25T02:17:03.101Z,89.96
2023-05-25T02:21:05.609Z,90.01
2023-05-25T02:23:07.578Z,89.8
2023-05-25T02:25:09.363Z,89.67
2023-05-25T02:27:11.149Z,89.63
2023-05-25T02:29:12.452Z,90.06
2023-05-25T02:33:15.471Z,90.49
2023-05-25T02:35:17.132Z,90.48
2023-05-25T02:37:19.066Z,90.59
2023-05-25T02:39:20.105Z,90.81
2023-05-25T02:43:23.125Z,90.9
2023-05-25T02:49:28.199Z,90.72
2023-05-25T02:53:31.220Z,91.28
2023-05-25T02:55:32.768Z,91.15
2023-05-25T02:59:35.739Z,91.89
2023-05-25T03:03:39.269Z,91.57
2023-05-25T03:05:40.794Z,91.19
2023-05-25T03:07:42.231Z,91.52
2023-05-25T03:09:43.913Z,91.67
2023-05-25T03:11:45.319Z,91.64
2023-05-25T03:15:48.717Z,91.92
2023-05-25T03:17:50.213Z,91.94
2023-05-25T03:19:52.007Z,92.05
2023-05-25T03:21:53.213Z,92.05
2023-05-25T03:25:56.338Z,91.93
2023-05-25T03:27:57.841Z,91.86
2023-05-25T03:32:00.810Z,91.69
2023-05-25T03:36:04.124Z,91.77
2023-05-25T03:38:05.599Z,91.67
2023-05-25T03:42:08.399Z,91.47
2023-05-25T03:46:11.802Z,91.29
2023-05-25T03:48:12.791Z,90.94
2023-05-25T03:52:16.009Z,91.17
2023-05-25T03:54:17.536Z,91.39
2023-05-25T03:58:19.969Z,91.47
2023-05-25T04:02:22.511Z,91.33
2023-05-25T04:04:23.579Z,91.3
2023-05-25T04:08:26.465Z,91.21
2023-05-25T04:10:27.993Z,90.84
2023-05-25T04:14:30.214Z,89.99
2023-05-25T04:18:33.138Z,89.99
2023-05-25T04:20:35.177Z,89.99
2023-05-25T04:24:37.313Z,90.24
2023-05-25T04:28:40.204Z,89.66
2023-05-25T04:30:41.244Z,89.75
2023-05-25T04:34:44.399Z,89.49
2023-05-25T04:36:45.942Z,88.28
2023-05-25T04:40:48.535Z,86.55
2023-05-25T04:44:51.919Z,84.42
2023-05-25T04:46:53.469Z,81.35
2023-05-25T04:50:55.677Z,81.5
2023-05-25T04:52:57.561Z,80.84
2023-05-25T04:56:59.973Z,79.83
2023-05-25T05:01:03.441Z,82.28
2023-05-25T05:03:04.431Z,83.9
2023-05-25T05:07:07.390Z,85.12
2023-05-25T05:11:09.690Z,84.44
2023-05-25T05:13:10.884Z,84.44
2023-05-25T05:17:13.637Z,83.36
2023-05-25T05:19:15.054Z,81.53
2023-05-25T05:21:16.539Z,82.89
2023-05-25T05:23:17.991Z,82.19
2023-05-25T05:27:20.272Z,81.34
2023-05-25T05:29:21.282Z,81.77
2023-05-25T05:31:22.416Z,80.52
2023-05-25T05:33:23.381Z,80.59
2023-05-25T05:35:24.396Z,79.89
2023-05-25T05:39:27.308Z,80
2023-05-25T05:43:30.430Z,77.85
2023-05-25T05:45:32.199Z,78.78
2023-05-25T05:49:34.713Z,77.47
2023-05-25T05:51:35.674Z,76.09
2023-05-25T05:55:38.578Z,74.67
2023-05-25T05:59:41.330Z,73.4
2023-05-25T06:01:43.140Z,72.66
2023-05-25T06:05:45.513Z,73.51
2023-05-25T06:09:47.306Z,72.16
2023-05-25T06:11:49.084Z,73.35
2023-05-25T06:15:52.275Z,72.61
2023-05-25T06:17:53.900Z,69.78
2023-05-25T06:21:56.223Z,73.09
2023-05-25T06:25:58.667Z,71.29
2023-05-25T06:27:59.967Z,72.62
2023-05-25T06:32:03.189Z,72.11
2023-05-25T06:34:04.222Z,71.88
2023-05-25T06:38:07.321Z,70.19
2023-05-25T06:42:10.042Z,72.5
2023-05-25T06:44:11.012Z,71.49
2023-05-25T06:48:14.115Z,69.5
2023-05-25T06:50:15.408Z,69.19
2023-05-25T06:54:18.194Z,68.71
2023-05-25T06:58:20.568Z,68.34
2023-05-25T07:00:22.678Z,68.03
2023-05-25T07:04:26.224Z,65.29
2023-05-25T07:08:28.321Z,67.58
2023-05-25T07:10:29.874Z,65.9
2023-05-25T07:14:31.974Z,67.32
2023-05-25T07:16:33.478Z,64.57
2023-05-25T07:20:36.893Z,65.15
2023-05-25T07:24:40.191Z,62.95
2023-05-25T07:26:41.332Z,65.34
2023-05-25T07:30:44.787Z,63.23
2023-05-25T07:34:47.669Z,63.66
2023-05-25T07:36:49.359Z,65.34
2023-05-25T07:40:51.948Z,63.95
2023-05-25T07:42:53.501Z,64.29
2023-05-25T07:44:54.982Z,63.01
2023-05-25T07:46:56.066Z,64.76
2023-05-25T07:50:58.723Z,64.47
2023-05-25T07:53:00.214Z,62.64
2023-05-25T07:55:01.306Z,60.01
2023-05-25T07:57:02.135Z,63.24
2023-05-25T08:01:49.511Z,63.41
2023-05-25T08:03:50.798Z,61.79
2023-05-25T08:07:52.753Z,63.26
2023-05-25T08:09:55.010Z,61.08
2023-05-25T08:13:57.580Z,61.45
2023-05-25T08:18:00.728Z,60.88
2023-05-25T08:20:02.037Z,60.76
2023-05-25T08:24:05.110Z,60.47
2023-05-25T08:28:08.338Z,60.46
2023-05-25T08:30:09.906Z,60.59
2023-05-25T08:34:12.555Z,62.24
2023-05-25T08:36:13.869Z,60.24
2023-05-25T08:40:16.871Z,58.67
2023-05-25T08:42:19.123Z,57.63
2023-05-25T08:44:20.255Z,58.21
2023-05-25T08:46:21.970Z,60.7
2023-05-25T08:50:24.527Z,61.43
2023-05-25T08:52:25.937Z,62.81
2023-05-25T08:56:28.530Z,63.08
2023-05-25T09:00:30.446Z,58.56
2023-05-25T09:02:31.346Z,58.61
2023-05-25T09:06:33.978Z,56.92
2023-05-25T09:10:37.111Z,56.77
2023-05-25T09:12:39.194Z,56.39
2023-05-25T09:16:41.668Z,57.22
2023-05-25T09:18:42.982Z,56.55
2023-05-25T09:22:45.518Z,55.25
2023-05-25T09:26:48.723Z,58.6
2023-05-25T09:28:50.343Z,58.57
2023-05-25T09:30:51.622Z,56.19
2023-05-25T09:34:53.873Z,56.22
2023-05-25T09:38:57.168Z,56.39
2023-05-25T09:40:58.128Z,55.52
2023-05-25T09:42:59.868Z,57.03
2023-05-25T09:49:03.515Z,55.46
2023-05-25T09:53:07.171Z,51.89
2023-05-25T09:55:08.762Z,57.58
2023-05-25T09:59:10.463Z,53.78
2023-05-25T10:01:11.758Z,53.29
2023-05-25T10:03:12.725Z,56.42
2023-05-25T10:05:14.185Z,54.31
2023-05-25T10:09:16.120Z,56.82
2023-05-25T10:11:17.804Z,54.66
2023-05-25T10:13:18.766Z,54.2
2023-05-25T10:15:20.102Z,52.82
2023-05-25T10:17:21.437Z,54.11
2023-05-25T10:21:25.692Z,55.03
2023-05-25T10:23:27.300Z,52.61
2023-05-25T10:25:29.188Z,57.17
2023-05-25T10:27:30.635Z,52.82
2023-05-25T10:31:33.527Z,55.44
2023-05-25T10:33:34.781Z,50.59
2023-05-25T10:37:37.237Z,51.89
2023-05-25T10:39:38.167Z,54.05
2023-05-25T10:41:39.111Z,53.27
2023-05-25T10:43:40.373Z,50.74
2023-05-25T10:47:43.363Z,54.71
2023-05-25T10:51:46.333Z,54.12
2023-05-25T10:53:47.636Z,52.97
2023-05-25T10:57:50.783Z,54.09
2023-05-25T10:59:52.553Z,55.04
2023-05-25T11:03:54.254Z,52.74
2023-05-25T11:07:56.700Z,49.13
2023-05-25T11:09:58.413Z,54.77
2023-05-25T11:14:01.115Z,50.35
2023-05-25T11:16:02.879Z,52.26
2023-05-25T11:20:05.291Z,51.49
2023-05-25T11:24:07.706Z,57.06
2023-05-25T11:26:08.967Z,51.44
2023-05-25T11:30:11.523Z,49.11
2023-05-25T11:34:23.898Z,53.44
2023-05-25T11:36:15.842Z,50.47
2023-05-25T11:40:18.591Z,48.43
2023-05-25T11:42:19.887Z,50.61
2023-05-25T11:46:22.620Z,51.31
2023-05-25T11:50:24.679Z,52.95
2023-05-25T11:52:26.272Z,47.84
2023-05-25T11:56:35.405Z,51.73
2023-05-25T11:58:29.883Z,50.85
2023-05-25T12:02:31.502Z,48.68
2023-05-25T12:06:33.833Z,48.45
2023-05-25T12:08:34.972Z,50.54
2023-05-25T12:12:38.590Z,53.43
2023-05-25T12:18:41.925Z,51.81
2023-05-25T12:22:45.159Z,47.14
2023-05-25T12:24:46.020Z,50.13
2023-05-25T12:26:47.273Z,48.22
2023-05-25T12:28:48.677Z,49.32
2023-05-25T12:32:51.637Z,48.94
2023-05-25T12:34:53.145Z,49.78
2023-05-25T12:36:54.868Z,46.51
2023-05-25T12:38:55.913Z,45.69
2023-05-25T12:40:57.592Z,49.34
2023-05-25T12:44:59.741Z,48.44
2023-05-25T12:47:01.400Z,45.03
2023-05-25T12:49:02.887Z,47.55
2023-05-25T12:51:03.670Z,45.91
2023-05-25T12:55:07.697Z,47.1
2023-05-25T12:57:09.272Z,50.12
2023-05-25T13:01:12.552Z,49.17
2023-05-25T13:05:15.259Z,47.26
2023-05-25T13:07:16.566Z,47.88
2023-05-25T13:11:19.222Z,45.49
2023-05-25T13:13:20.595Z,45.4
2023-05-25T13:17:22.951Z,48.15
2023-05-25T13:21:25.410Z,45.64
2023-05-25T13:23:26.595Z,42.89
2023-05-25T13:27:29.168Z,49.41
2023-05-25T13:29:30.302Z,47.35
2023-05-25T13:31:31.567Z,49.08
2023-05-25T13:37:36.297Z,45.3
2023-05-25T13:39:37.263Z,48.7
2023-05-25T13:41:38.253Z,47.15
2023-05-25T13:43:39.417Z,46.06
2023-05-25T13:47:41.536Z,47.36
2023-05-25T13:49:42.411Z,46.03
2023-05-25T13:53:45.217Z,46.11
2023-05-25T13:57:47.856Z,44.23
2023-05-25T13:59:49.937Z,42.61
2023-05-25T14:03:52.613Z,45.18
2023-05-25T14:05:54.241Z,46.97
2023-05-25T14:09:58.255Z,46.61
2023-05-25T14:11:58.757Z,46.98
2023-05-25T14:16:01.947Z,46.72
2023-05-25T14:20:04.804Z,46.51
2023-05-25T14:22:12.994Z,49.35
2023-05-25T14:26:08.655Z,45.08
2023-05-25T14:30:10.429Z,44.08
2023-05-25T14:32:12.381Z,43.79
2023-05-25T14:36:14.979Z,47.12
2023-05-25T14:42:19.893Z,46.31
2023-05-25T14:47:06.717Z,43.66
2023-05-25T14:51:09.944Z,42.78
2023-05-25T14:53:12.123Z,43.46
2023-05-25T14:57:14.997Z,42.58
2023-05-25T14:59:16.066Z,45.07
2023-05-25T15:03:18.812Z,43.56
2023-05-25T15:07:20.900Z,47.06
2023-05-25T15:09:22.385Z,47.9
2023-05-25T15:13:25.445Z,42.86
2023-05-25T15:15:26.850Z,46.13
2023-05-25T15:19:30.408Z,43.74
2023-05-25T15:23:34.056Z,45.7
2023-05-25T15:25:35.954Z,47.69
2023-05-25T15:29:37.990Z,44.1
2023-05-25T15:33:51.870Z,44.15
2023-05-25T15:35:42.012Z,42.98
2023-05-25T15:39:44.568Z,43.38
2023-05-25T15:41:46.216Z,42.51
2023-05-25T15:45:50.174Z,45.65
2023-05-25T15:51:53.949Z,42.72
2023-05-25T15:55:56.981Z,43.16
2023-05-25T15:57:57.876Z,41.83
2023-05-25T16:02:00.160Z,44.41
2023-05-25T16:06:02.000Z,43.15
2023-05-25T16:08:04.389Z,43.81
2023-05-25T16:12:06.534Z,43.43
2023-05-25T16:14:08.013Z,43.51
2023-05-25T16:18:11.745Z,44.95
2023-05-25T16:22:13.656Z,42.06
2023-05-25T16:24:15.585Z,43.25
2023-05-25T16:28:17.879Z,45.08
2023-05-25T16:30:18.864Z,44.59
2023-05-25T16:34:21.371Z,44.32
2023-05-25T16:38:23.891Z,42.06
2023-05-25T16:40:24.999Z,45.73
2023-05-25T16:44:27.923Z,44.41
2023-05-25T16:48:29.598Z,42.29
2023-05-25T16:50:30.421Z,42.11
2023-05-25T16:54:33.204Z,44.23
2023-05-25T16:56:34.310Z,43.52
2023-05-25T16:58:35.811Z,45.13
2023-05-25T17:00:36.710Z,42.7
2023-05-25T17:04:39.260Z,45.44
2023-05-25T17:06:40.176Z,43.67
2023-05-25T17:08:41.782Z,46.3
2023-05-25T17:10:42.771Z,47.21
2023-05-25T17:16:47.408Z,46.67
2023-05-25T17:18:48.749Z,50.54
2023-05-25T17:20:50.125Z,46.58
2023-05-25T17:22:51.033Z,47.45
2023-05-25T17:26:53.407Z,49
2023-05-25T17:28:55.164Z,49.36
2023-05-25T17:32:58.261Z,48.34
2023-05-25T17:37:01.326Z,48.22
2023-05-25T17:39:02.507Z,50.03
2023-05-25T17:43:05.067Z,51.53
2023-05-25T17:47:10.680Z,49.65
2023-05-25T17:49:08.823Z,51.68
2023-05-25T17:53:12.241Z,49.93
2023-05-25T17:55:13.798Z,47.92
2023-05-25T17:59:16.369Z,50.73
2023-05-25T18:03:19.139Z,50.54
2023-05-25T18:05:19.992Z,51.59
2023-05-25T18:09:22.743Z,51.63
2023-05-25T18:11:24.582Z,53.91
2023-05-25T18:15:27.427Z,52.31
2023-05-25T18:19:30.109Z,51.73
2023-05-25T18:21:31.651Z,51.1
2023-05-25T18:25:34.259Z,50.99
2023-05-25T18:29:37.190Z,52.24
2023-05-25T18:31:38.621Z,53.48
2023-05-25T18:35:41.372Z,52.61
2023-05-25T18:37:42.491Z,51.48
2023-05-25T18:41:44.548Z,52.47
2023-05-25T18:45:47.308Z,51.8
2023-05-25T18:47:48.375Z,51.67
2023-05-25T18:51:51.326Z,53
2023-05-25T18:53:52.818Z,51.69
2023-05-25T18:57:55.271Z,52.71
2023-05-25T19:01:58.140Z,53
2023-05-25T19:03:59.690Z,54.64
2023-05-25T19:08:02.046Z,54.5
2023-05-25T19:12:04.858Z,54.68
2023-05-25T19:14:06.174Z,54.56
2023-05-25T19:18:08.656Z,54.36
2023-05-25T19:20:10.295Z,55.87
2023-05-25T19:22:11.835Z,55.68
2023-05-25T19:24:13.250Z,55.95
2023-05-25T19:28:15.861Z,57.54
2023-05-25T19:30:17.066Z,58.49
2023-05-25T19:32:18.646Z,59.02
2023-05-25T19:34:20.123Z,59.05
2023-05-25T19:36:21.522Z,59.16
2023-05-25T19:40:24.060Z,59.45
2023-05-25T19:42:25.845Z,60.1
2023-05-25T19:44:27.492Z,59.45
2023-05-25T19:46:28.409Z,60.01
2023-05-25T19:50:31.299Z,60.3
2023-05-25T19:52:32.450Z,60.76
2023-05-25T19:56:35.170Z,62.4
2023-05-25T20:00:37.280Z,64.74
2023-05-25T20:02:38.679Z,63.88
2023-05-25T20:06:41.432Z,65.55
2023-05-25T20:10:43.676Z,64.51
2023-05-25T20:12:44.881Z,63.89
2023-05-25T20:16:48.431Z,64.15
2023-05-25T20:18:50.009Z,64.61
2023-05-25T20:22:52.109Z,64.67
2023-05-25T20:26:55.057Z,64.01
2023-05-25T20:28:56.912Z,63.81
2023-05-25T20:30:58.404Z,65.68
2023-05-25T20:33:00.314Z,64.92
2023-05-25T20:35:01.567Z,65.53
2023-05-25T20:39:04.461Z,66.16
2023-05-25T20:43:07.747Z,66.04
2023-05-25T20:45:09.398Z,65.89
2023-05-25T20:49:12.955Z,67.03
2023-05-25T20:53:15.907Z,66.22
2023-05-25T20:55:17.353Z,65.76
2023-05-25T20:59:19.639Z,66.12
2023-05-25T21:01:21.054Z,65.99
2023-05-25T21:05:23.906Z,66.57
2023-05-25T21:09:25.871Z,66.32
2023-05-25T21:11:27.498Z,67.25
2023-05-25T21:15:29.890Z,67.47
2023-05-25T21:17:30.973Z,67.21
2023-05-25T21:21:33.568Z,67.17
2023-05-25T21:25:35.857Z,67.6
2023-05-25T21:27:37.165Z,68.19
2023-05-25T21:30:22.141Z,67.8
2023-05-25T21:32:23.818Z,68.25
2023-05-25T21:36:26.765Z,68.32
2023-05-25T21:38:37.460Z,68
2023-05-25T21:40:29.611Z,68.09
2023-05-25T21:42:30.635Z,68.14
2023-05-25T21:46:33.451Z,69.3
2023-05-25T21:48:35.051Z,68.95
2023-05-25T21:50:36.248Z,68.64
2023-05-25T21:52:46.793Z,69.1
2023-05-25T21:54:39.438Z,69.85
2023-05-25T21:58:42.395Z,70.32
2023-05-25T22:00:43.417Z,70.56
2023-05-25T22:02:44.403Z,69.95
2023-05-25T22:04:45.557Z,70.55
2023-05-25T22:08:48.202Z,70.75
2023-05-25T22:10:49.512Z,71
2023-05-25T22:14:52.230Z,71.16
2023-05-25T22:18:55.432Z,71.92
2023-05-25T22:20:57.045Z,72.37
2023-05-25T22:25:00.318Z,72.83
2023-05-25T22:29:03.112Z,73.43
2023-05-25T22:31:04.914Z,73.49
2023-05-25T22:35:07.225Z,73.36
2023-05-25T22:37:08.737Z,73.48
2023-05-25T22:41:11.825Z,73.73
2023-05-25T22:45:14.093Z,74
2023-05-25T22:47:15.540Z,74.42
2023-05-25T22:51:18.130Z,74.94
2023-05-25T22:53:19.160Z,74.29
2023-05-25T22:57:21.729Z,74.56
2023-05-25T23:01:24.539Z,75.13
2023-05-25T23:03:26.178Z,75.48
2023-05-25T23:07:28.413Z,75.42
2023-05-25T23:11:31.297Z,75.98
2023-05-25T23:13:32.780Z,76.09
2023-05-25T23:17:36.412Z,76.71
2023-05-25T23:19:37.973Z,77.41
2023-05-25T23:23:40.715Z,78.25
2023-05-25T23:27:43.362Z,77.69
2023-05-25T23:29:44.966Z,77.89
2023-05-25T23:33:47.684Z,78.15
2023-05-25T23:35:49.297Z,78.73
2023-05-25T23:39:51.710Z,79.16
2023-05-25T23:43:54.500Z,79.9
2023-05-25T23:45:55.518Z,79.7
2023-05-25T23:49:58.279Z,80.31
2023-05-25T23:54:01.511Z,80.17
2023-05-25T23:56:03.205Z,80.02
